Time;durP1;ratioP1;P1;durP2;ratioP2;P2;SDS_P1;SDS_P2;PMS_P1;PMS_P2;Temp;Humidity;BMP_temperature;BMP_pressure;BME280_temperature;BME280_humidity;BME280_pressure;Samples;Min_cycle;Max_cycle;Signal;HPM_P1;HPM_P2
2023/04/22 00:01:12;;;;;;;3.17;1.42;;;;;;;14.73;44.08;99362.56;4488852;31;34676;-63
2023/04/22 00:03:40;;;;;;;4.30;2.97;;;;;;;14.83;44.16;99362.50;4496717;31;33114;-62
2023/04/22 00:06:09;;;;;;;3.72;3.22;;;;;;;14.82;43.90;99360.81;4489485;31;34193;-64
2023/04/22 00:08:36;;;;;;;1.85;1.52;;;;;;;14.70;44.42;99362.00;4492472;31;35007;-60
2023/04/22 00:11:04;;;;;;;2.42;1.90;;;;;;;14.11;45.36;99358.69;4500173;31;32520;-62
2023/04/22 00:13:32;;;;;;;6.62;3.12;;;;;;;14.35;45.42;99350.09;4501431;31;34362;-60
2023/04/22 00:15:59;;;;;;;2.50;1.87;;;;;;;14.65;44.79;99360.63;4499868;31;33897;-60
2023/04/22 00:18:27;;;;;;;3.60;2.28;;;;;;;14.72;44.61;99357.34;4492747;31;33973;-60
2023/04/22 00:20:54;;;;;;;3.12;2.42;;;;;;;14.79;44.46;99358.41;4496207;31;33802;-61
2023/04/22 00:23:22;;;;;;;2.60;1.87;;;;;;;15.02;44.25;99359.69;4500759;31;33616;-60
2023/04/22 00:25:50;;;;;;;4.53;2.08;;;;;;;15.02;44.05;99353.44;4500879;31;33680;-60
2023/04/22 00:28:17;;;;;;;5.57;2.70;;;;;;;14.92;44.29;99358.91;4489894;31;34956;-61
2023/04/22 00:30:45;;;;;;;2.92;2.08;;;;;;;15.09;44.29;99355.41;4487138;31;34881;-60
2023/04/22 00:33:12;;;;;;;7.00;2.87;;;;;;;15.12;44.27;99349.69;4486208;31;33705;-60
2023/04/22 00:35:40;;;;;;;4.32;2.75;;;;;;;15.22;44.00;99359.56;4490353;31;34784;-60
2023/04/22 00:38:07;;;;;;;4.95;2.25;;;;;;;15.27;44.04;99355.38;4501293;31;33776;-58
2023/04/22 00:40:35;;;;;;;5.03;2.65;;;;;;;15.32;43.80;99357.62;4498391;31;32450;-59
2023/04/22 00:43:03;;;;;;;5.87;2.12;;;;;;;15.29;43.95;99349.84;4486700;31;34428;-59
2023/04/22 00:45:30;;;;;;;2.97;2.45;;;;;;;15.42;43.33;99349.47;4485500;32;33840;-58
2023/04/22 00:47:58;;;;;;;2.05;1.58;;;;;;;15.38;44.05;99346.22;4485517;32;33891;-59
2023/04/22 00:50:26;;;;;;;3.20;2.05;;;;;;;15.41;43.79;99356.72;4489368;31;33978;-60
2023/04/22 00:52:54;;;;;;;4.22;1.77;;;;;;;15.13;44.04;99345.16;4496806;31;32071;-59
2023/04/22 00:55:22;;;;;;;4.03;2.28;;;;;;;15.16;44.09;99354.78;4491210;31;33555;-58
2023/04/22 00:57:51;;;;;;;3.35;2.30;;;;;;;15.11;44.61;99350.69;4494223;31;34160;-60
2023/04/22 01:00:19;;;;;;;3.92;2.53;;;;;;;15.00;44.87;99352.78;4499855;31;33949;-60
2023/04/22 01:02:46;;;;;;;3.20;2.15;;;;;;;15.02;44.91;99356.97;4499692;31;33478;-59
2023/04/22 01:05:15;;;;;;;5.53;2.53;;;;;;;15.07;45.23;99357.38;4493479;31;33664;-58
2023/04/22 01:07:42;;;;;;;2.55;1.70;;;;;;;15.00;45.55;99360.84;4492611;31;34286;-61
2023/04/22 01:10:10;;;;;;;2.65;1.87;;;;;;;15.20;44.56;99354.31;4491571;31;32316;-60
2023/04/22 01:12:38;;;;;;;4.12;2.25;;;;;;;15.14;44.98;99354.91;4485058;31;33251;-60
2023/04/22 01:15:06;;;;;;;3.08;1.87;;;;;;;15.17;45.03;99354.63;4484878;32;33822;-60
2023/04/22 01:17:34;;;;;;;4.80;3.45;;;;;;;15.31;44.55;99361.31;4483922;32;35142;-58
2023/04/22 01:20:04;;;;;;;3.20;2.47;;;;;;;15.41;44.40;99356.72;4490709;31;33759;-58
2023/04/22 01:22:36;;;;;;;4.22;1.27;;;;;;;14.96;45.30;99354.91;4497706;31;33590;-57
2023/04/22 01:25:04;;;;;;;3.87;2.20;;;;;;;15.00;44.82;99364.38;4483632;31;35109;-60
2023/04/22 01:27:31;;;;;;;4.65;2.25;;;;;;;15.00;44.74;99355.47;4496085;31;33779;-60
2023/04/22 01:29:59;;;;;;;3.83;2.55;;;;;;;15.10;44.41;99367.00;4500777;31;32784;-59
2023/04/22 01:32:29;;;;;;;3.95;2.65;;;;;;;15.09;44.74;99368.03;4496247;31;33767;-61
2023/04/22 01:34:57;;;;;;;3.60;2.42;;;;;;;15.13;44.59;99361.31;4491666;31;33752;-59
2023/04/22 01:37:25;;;;;;;5.32;3.58;;;;;;;15.04;44.88;99373.84;4495950;31;33729;-60
2023/04/22 01:39:53;;;;;;;2.20;1.87;;;;;;;14.92;45.39;99369.69;4493379;31;34523;-60
2023/04/22 01:42:20;;;;;;;2.55;2.35;;;;;;;14.85;45.37;99368.59;4489581;31;34502;-60
2023/04/22 01:44:48;;;;;;;3.10;2.08;;;;;;;14.63;45.83;99367.16;4493812;31;32362;-59
2023/04/22 01:47:16;;;;;;;4.68;2.95;;;;;;;14.23;46.28;99362.91;4494073;31;34776;-60
2023/04/22 01:49:43;;;;;;;3.10;2.40;;;;;;;14.21;46.71;99376.50;4497889;31;33626;-62
2023/04/22 01:52:12;;;;;;;3.35;2.80;;;;;;;14.28;46.39;99370.53;4490156;31;33155;-60
2023/04/22 01:54:40;;;;;;;3.50;2.03;;;;;;;14.04;47.23;99374.59;4488853;31;33632;-61
2023/04/22 01:57:12;;;;;;;5.93;1.58;;;;;;;14.18;47.34;99374.09;4482829;31;33368;-60
2023/04/22 01:59:40;;;;;;;1.45;1.33;;;;;;;14.26;47.21;99369.84;4489521;31;34998;-59
2023/04/22 02:02:08;;;;;;;2.60;1.77;;;;;;;14.55;46.20;99367.06;4491021;31;33230;-60
2023/04/22 02:04:36;;;;;;;1.73;1.62;;;;;;;14.53;46.23;99361.81;4484982;31;33841;-58
2023/04/22 02:07:04;;;;;;;7.60;1.70;;;;;;;14.44;46.76;99358.16;4490615;31;35276;-60
2023/04/22 02:09:32;;;;;;;2.70;1.73;;;;;;;14.51;46.56;99360.25;4497682;31;34444;-58
2023/04/22 02:12:00;;;;;;;3.60;2.40;;;;;;;14.34;46.78;99361.88;4492350;31;33269;-62
2023/04/22 02:14:27;;;;;;;13.80;2.22;;;;;;;14.40;46.37;99359.44;4493842;31;35023;-60
2023/04/22 02:16:55;;;;;;;2.25;1.85;;;;;;;14.62;45.86;99362.78;4495450;31;32240;-60
2023/04/22 02:19:22;;;;;;;3.65;2.03;;;;;;;14.68;45.86;99356.78;4496589;31;34403;-60
2023/04/22 02:21:50;;;;;;;1.23;1.12;;;;;;;14.35;46.21;99360.87;4494733;31;32246;-60
2023/04/22 02:24:17;;;;;;;2.60;1.52;;;;;;;14.55;45.88;99367.06;4483387;31;34166;-59
2023/04/22 02:26:46;;;;;;;2.92;1.83;;;;;;;14.62;45.33;99362.78;4495330;31;33923;-59
2023/04/22 02:29:15;;;;;;;3.05;2.45;;;;;;;14.60;45.74;99365.59;4493200;31;34744;-59
2023/04/22 02:31:42;;;;;;;3.30;2.28;;;;;;;14.61;45.87;99364.62;4490688;31;34180;-60
2023/04/22 02:34:10;;;;;;;1.62;1.40;;;;;;;14.80;45.47;99360.97;4487750;31;33905;-60
2023/04/22 02:36:37;;;;;;;1.48;1.37;;;;;;;14.91;44.95;99366.13;4482581;32;35291;-62
2023/04/22 02:39:05;;;;;;;1.92;1.60;;;;;;;14.85;44.92;99363.22;4492277;31;33656;-59
2023/04/22 02:41:34;;;;;;;4.78;1.95;;;;;;;14.82;44.69;99353.56;4493912;31;32003;-60
2023/04/22 02:44:02;;;;;;;5.05;1.42;;;;;;;14.73;44.89;99359.84;4488067;31;33838;-60
2023/04/22 02:46:29;;;;;;;5.28;2.55;;;;;;;14.53;45.65;99353.72;4481858;31;35042;-61
2023/04/22 02:48:57;;;;;;;2.55;1.77;;;;;;;14.58;45.41;99356.84;4482087;32;32704;-60
2023/04/22 02:51:25;;;;;;;2.22;1.92;;;;;;;14.53;45.55;99358.28;4481704;31;34704;-59
2023/04/22 02:53:53;;;;;;;5.10;2.40;;;;;;;14.50;45.75;99354.00;4492519;31;35188;-61
2023/04/22 02:56:20;;;;;;;2.10;1.40;;;;;;;14.42;45.72;99354.75;4496652;31;34009;-62
2023/04/22 02:58:48;;;;;;;3.25;2.03;;;;;;;13.94;46.92;99354.94;4497761;31;32427;-58
2023/04/22 03:01:15;;;;;;;5.47;3.28;;;;;;;14.15;46.62;99352.03;4493362;31;33468;-59
2023/04/22 03:03:43;;;;;;;2.83;2.03;;;;;;;13.98;47.20;99345.56;4489655;31;34213;-59
2023/04/22 03:06:11;;;;;;;2.55;1.95;;;;;;;14.04;47.17;99352.22;4493860;31;33958;-59
2023/04/22 03:08:39;;;;;;;2.65;1.73;;;;;;;14.15;46.40;99352.87;4490332;31;33881;-59
2023/04/22 03:11:07;;;;;;;3.08;2.35;;;;;;;14.23;46.42;99362.06;4494245;31;33530;-58
2023/04/22 03:13:34;;;;;;;5.37;2.15;;;;;;;14.40;46.31;99358.59;4486464;31;34002;-60
2023/04/22 03:16:01;;;;;;;3.20;2.45;;;;;;;14.50;45.96;99358.53;4484223;31;35059;-61
2023/04/22 03:18:30;;;;;;;2.37;1.77;;;;;;;14.30;46.55;99366.72;4496901;31;33884;-59
2023/04/22 03:20:57;;;;;;;1.27;1.17;;;;;;;14.22;46.79;99355.81;4491001;31;33223;-59
2023/04/22 03:23:25;;;;;;;1.10;0.95;;;;;;;13.78;47.68;99357.38;4494114;31;33617;-59
2023/04/22 03:25:52;;;;;;;3.97;2.37;;;;;;;14.30;46.54;99358.63;4496195;31;32827;-59
2023/04/22 03:28:20;;;;;;;2.22;1.60;;;;;;;13.97;47.89;99365.41;4495484;31;33799;-62
2023/04/22 03:30:48;;;;;;;4.35;3.15;;;;;;;14.13;47.09;99368.34;4491141;31;34565;-61
2023/04/22 03:33:17;;;;;;;2.30;1.60;;;;;;;13.69;48.53;99365.31;4489691;31;32519;-62
2023/04/22 03:35:48;;;;;;;4.30;2.37;;;;;;;14.10;47.51;99368.63;4494868;31;34995;-59
2023/04/22 03:38:15;;;;;;;2.37;1.83;;;;;;;13.24;50.25;99365.91;4496144;31;33893;-59
2023/04/22 03:40:43;;;;;;;2.22;2.03;;;;;;;13.63;48.75;99371.25;4496834;31;33224;-60
2023/04/22 03:43:11;;;;;;;4.90;1.35;;;;;;;13.77;48.58;99372.66;4483943;31;35004;-60
2023/04/22 03:45:39;;;;;;;2.55;1.85;;;;;;;13.68;48.53;99376.22;4498470;31;34173;-64
2023/04/22 03:48:08;;;;;;;1.12;1.02;;;;;;;13.79;48.57;99376.06;4484195;31;33824;-62
2023/04/22 03:50:36;;;;;;;4.57;2.37;;;;;;;13.91;47.86;99368.69;4483473;31;34036;-62
2023/04/22 03:53:03;;;;;;;3.53;2.25;;;;;;;13.95;48.05;99376.31;4494923;31;33669;-65
2023/04/22 03:55:31;;;;;;;2.78;1.42;;;;;;;13.99;48.45;99376.84;4498589;31;34199;-62
2023/04/22 03:57:59;;;;;;;3.75;1.73;;;;;;;14.21;47.51;99371.13;4499049;31;34013;-62
2023/04/22 04:00:27;;;;;;;7.80;2.10;;;;;;;14.30;47.17;99377.47;4498152;31;33640;-62
2023/04/22 04:02:56;;;;;;;6.12;2.15;;;;;;;14.44;46.63;99376.13;4496483;31;33689;-64
2023/04/22 04:05:24;;;;;;;6.57;1.98;;;;;;;14.52;46.36;99376.28;4499234;31;34884;-63
2023/04/22 04:07:51;;;;;;;2.78;1.75;;;;;;;14.47;46.40;99383.06;4498514;31;33305;-62
2023/04/22 04:10:19;;;;;;;3.40;1.95;;;;;;;14.51;46.18;99373.72;4497834;31;33339;-63
2023/04/22 04:12:47;;;;;;;2.62;2.05;;;;;;;14.30;46.69;99377.47;4490632;31;34487;-63
2023/04/22 04:15:17;;;;;;;1.98;1.33;;;;;;;14.18;47.09;99382.19;4485013;31;32286;-63
2023/04/22 04:17:47;;;;;;;3.92;2.03;;;;;;;13.94;47.44;99381.84;4484846;31;34485;-63
2023/04/22 04:20:15;;;;;;;3.22;1.98;;;;;;;14.06;47.56;99387.88;4488519;31;33219;-63
2023/04/22 04:22:42;;;;;;;2.75;1.85;;;;;;;14.24;46.76;99385.28;4486540;31;32654;-64
2023/04/22 04:25:10;;;;;;;4.30;1.92;;;;;;;14.32;47.02;99383.56;4498728;31;33690;-63
2023/04/22 04:27:40;;;;;;;4.65;2.40;;;;;;;14.47;46.03;99386.63;4499231;31;33643;-65
2023/04/22 04:30:09;;;;;;;3.75;2.47;;;;;;;14.53;46.44;99391.44;4488678;31;32488;-62
2023/04/22 04:32:37;;;;;;;3.30;2.60;;;;;;;14.65;45.99;99394.78;4488817;31;35160;-65
2023/04/22 04:35:06;;;;;;;13.15;2.75;;;;;;;14.66;46.11;99393.78;4484989;31;33792;-62
2023/04/22 04:37:33;;;;;;;4.70;2.55;;;;;;;14.71;45.56;99393.34;4488743;31;34070;-65
2023/04/22 04:40:01;;;;;;;4.28;2.65;;;;;;;14.65;45.47;99400.19;4492918;31;33218;-62
2023/04/22 04:42:32;;;;;;;3.40;2.12;;;;;;;14.76;45.30;99396.44;4485188;31;33724;-65
2023/04/22 04:44:59;;;;;;;2.33;1.83;;;;;;;14.68;45.86;99406.13;4492202;31;33810;-63
2023/04/22 04:47:28;;;;;;;8.90;2.70;;;;;;;14.87;45.54;99404.31;4487733;31;35300;-63
2023/04/22 04:50:03;;;;;;;4.03;2.40;;;;;;;14.93;44.96;99411.81;4489725;31;32252;-63
2023/04/22 04:52:31;;;;;;;2.37;1.60;;;;;;;14.61;45.67;99406.87;4486389;31;33536;-62
2023/04/22 04:54:58;;;;;;;4.93;2.12;;;;;;;14.93;45.07;99411.81;4489825;31;34323;-62
2023/04/22 04:57:26;;;;;;;7.87;2.08;;;;;;;14.98;45.35;99409.50;4497312;31;34448;-60
2023/04/22 04:59:54;;;;;;;5.22;2.30;;;;;;;14.94;45.85;99415.34;4491366;31;32305;-64
2023/04/22 05:02:22;;;;;;;1.50;0.98;;;;;;;15.11;45.16;99418.06;4488948;31;34568;-62
2023/04/22 05:04:50;;;;;;;2.42;1.67;;;;;;;15.11;45.84;99409.13;4490651;31;35155;-65
2023/04/22 05:07:18;;;;;;;4.07;2.20;;;;;;;15.14;45.90;99412.38;4495025;31;33970;-63
2023/04/22 05:09:46;;;;;;;2.92;2.22;;;;;;;15.29;45.56;99414.56;4484485;31;34444;-63
2023/04/22 05:12:14;;;;;;;3.92;2.25;;;;;;;15.44;45.05;99414.84;4486254;31;34534;-60
2023/04/22 05:14:42;;;;;;;5.97;3.60;;;;;;;15.79;44.54;99414.03;4496626;31;33839;-62
2023/04/22 05:17:09;;;;;;;5.25;2.78;;;;;;;16.03;43.79;99419.63;4490253;31;33791;-60
2023/04/22 05:19:37;;;;;;;8.63;3.83;;;;;;;16.32;43.43;99410.38;4487701;31;34036;-61
2023/04/22 05:22:06;;;;;;;4.18;2.70;;;;;;;16.50;42.62;99419.25;4495731;31;33809;-61
2023/04/22 05:24:34;;;;;;;4.03;2.60;;;;;;;16.99;40.65;99415.94;4487580;31;33555;-62
2023/04/22 05:27:01;;;;;;;5.18;2.90;;;;;;;17.87;38.32;99416.28;4488461;31;33919;-60
2023/04/22 05:29:30;;;;;;;2.53;1.92;;;;;;;19.20;36.22;99413.06;4495528;31;33207;-61
2023/04/22 05:31:58;;;;;;;7.72;3.67;;;;;;;19.47;35.57;99414.41;4492312;31;34636;-62
2023/04/22 05:34:26;;;;;;;9.95;3.10;;;;;;;19.33;36.19;99407.91;4488585;31;34009;-61
2023/04/22 05:36:54;;;;;;;6.85;3.05;;;;;;;19.11;36.54;99414.97;4492613;31;35259;-61
2023/04/22 05:39:21;;;;;;;4.43;2.75;;;;;;;19.28;36.93;99416.56;4492871;31;33527;-61
2023/04/22 05:41:49;;;;;;;5.47;3.05;;;;;;;20.35;35.58;99413.87;4495519;31;33748;-62
2023/04/22 05:44:17;;;;;;;9.82;3.70;;;;;;;21.18;34.23;99409.97;4490922;31;33581;-63
2023/04/22 05:46:45;;;;;;;4.87;3.28;;;;;;;22.14;32.45;99408.88;4486644;31;33604;-61
2023/04/22 05:49:13;;;;;;;6.12;2.80;;;;;;;21.90;33.22;99412.88;4487676;31;33291;-63
2023/04/22 05:51:43;;;;;;;6.47;2.75;;;;;;;21.71;33.23;99417.09;4496579;31;32816;-61
2023/04/22 05:54:11;;;;;;;4.70;2.92;;;;;;;21.65;33.59;99412.41;4498578;31;34055;-61
2023/04/22 05:56:39;;;;;;;7.12;4.87;;;;;;;21.41;33.53;99419.91;4491999;31;34721;-60
2023/04/22 05:59:07;;;;;;;10.48;3.45;;;;;;;21.14;33.60;99419.56;4493750;31;32974;-60
2023/04/22 06:01:35;;;;;;;4.68;2.62;;;;;;;20.91;33.76;99416.16;4491481;31;33939;-60
2023/04/22 06:04:05;;;;;;;6.65;3.67;;;;;;;20.80;34.41;99417.47;4498319;31;33908;-61
2023/04/22 06:06:33;;;;;;;5.47;2.45;;;;;;;20.73;34.02;99427.41;4494364;31;33762;-61
2023/04/22 06:09:00;;;;;;;5.15;2.12;;;;;;;20.75;33.33;99419.91;4491432;31;33246;-62
2023/04/22 06:11:28;;;;;;;7.80;3.92;;;;;;;20.34;34.13;99423.03;4484198;31;33724;-61
2023/04/22 06:13:55;;;;;;;5.80;3.30;;;;;;;20.53;32.16;99426.28;4486156;31;35256;-61
2023/04/22 06:16:23;;;;;;;7.32;3.25;;;;;;;20.34;31.51;99431.19;4486613;31;33825;-61
2023/04/22 06:18:50;;;;;;;5.28;3.87;;;;;;;20.31;31.47;99426.12;4495239;31;33469;-62
2023/04/22 06:21:20;;;;;;;5.07;3.12;;;;;;;19.93;31.88;99441.59;4492429;31;35062;-61
2023/04/22 06:23:47;;;;;;;8.07;3.55;;;;;;;19.63;32.44;99440.59;4491045;31;33733;-61
2023/04/22 06:26:15;;;;;;;5.32;2.90;;;;;;;19.77;31.77;99439.84;4486051;31;33814;-61
2023/04/22 06:28:42;;;;;;;9.63;4.40;;;;;;;19.89;32.17;99435.66;4496410;31;34499;-62
2023/04/22 06:31:10;;;;;;;6.40;3.03;;;;;;;19.70;32.38;99439.72;4491454;31;34022;-62
2023/04/22 06:33:38;;;;;;;6.35;4.10;;;;;;;19.25;31.73;99443.19;4489707;31;35663;-60
2023/04/22 06:36:07;;;;;;;7.97;3.50;;;;;;;18.97;33.08;99440.12;4491497;31;34879;-62
2023/04/22 06:38:35;;;;;;;6.03;2.97;;;;;;;19.03;33.23;99433.97;4493526;31;34006;-60
2023/04/22 06:41:04;;;;;;;6.82;3.67;;;;;;;19.39;33.67;99445.19;4486293;31;32417;-61
2023/04/22 06:43:32;;;;;;;6.60;3.53;;;;;;;19.34;33.49;99453.00;4490343;31;33935;-60
2023/04/22 06:46:02;;;;;;;7.03;3.42;;;;;;;19.34;33.01;99442.13;4491885;31;33268;-62
2023/04/22 06:48:32;;;;;;;4.55;2.30;;;;;;;19.34;32.19;99447.56;4486000;31;34116;-62
2023/04/22 06:51:05;;;;;;;5.40;3.50;;;;;;;19.42;31.27;99447.53;4491851;31;33504;-61
2023/04/22 06:53:32;;;;;;;4.72;3.03;;;;;;;19.45;30.87;99446.31;4492968;31;33825;-60
2023/04/22 06:56:00;;;;;;;7.78;2.58;;;;;;;19.69;30.55;99437.19;4496788;31;32573;-64
2023/04/22 06:58:27;;;;;;;9.80;2.75;;;;;;;19.41;30.58;99448.53;4483867;31;33457;-61
2023/04/22 07:00:55;;;;;;;5.28;3.15;;;;;;;19.45;29.58;99443.59;4487626;31;33773;-60
2023/04/22 07:03:22;;;;;;;5.35;2.62;;;;;;;19.14;29.37;99451.75;4488023;31;35015;-63
2023/04/22 07:05:53;;;;;;;3.95;2.55;;;;;;;18.87;28.60;99439.47;4487213;31;34369;-61
2023/04/22 07:08:21;;;;;;;4.87;2.55;;;;;;;19.42;28.69;99446.66;4485491;31;32610;-61
2023/04/22 07:10:49;;;;;;;5.37;2.35;;;;;;;19.76;27.68;99444.44;4497421;31;35043;-60
2023/04/22 07:13:18;;;;;;;4.22;2.65;;;;;;;19.78;27.62;99447.81;4487978;31;35287;-62
2023/04/22 07:15:45;;;;;;;4.97;2.78;;;;;;;19.53;27.25;99441.69;4493998;31;34069;-62
2023/04/22 07:18:13;;;;;;;4.60;2.25;;;;;;;19.75;27.92;99445.47;4501495;31;32348;-63
2023/04/22 07:20:40;;;;;;;3.08;2.37;;;;;;;19.47;28.87;99446.97;4490059;31;33690;-60
2023/04/22 07:23:08;;;;;;;3.85;2.50;;;;;;;19.53;29.18;99451.69;4491063;31;34097;-61
2023/04/22 07:25:36;;;;;;;12.63;2.40;;;;;;;20.01;28.35;99449.69;4495966;31;33959;-61
2023/04/22 07:28:03;;;;;;;7.15;3.30;;;;;;;19.47;28.03;99445.09;4494782;31;34459;-61
2023/04/22 07:30:31;;;;;;;5.43;2.95;;;;;;;19.03;29.01;99442.13;4497965;31;34719;-60
2023/04/22 07:32:58;;;;;;;5.95;2.62;;;;;;;19.99;26.73;99449.00;4497646;31;33903;-61
2023/04/22 07:35:27;;;;;;;5.32;2.70;;;;;;;20.41;27.51;99445.72;4495058;31;33620;-63
2023/04/22 07:37:55;;;;;;;5.30;2.75;;;;;;;20.28;27.32;99442.78;4497608;31;34152;-61
2023/04/22 07:40:22;;;;;;;5.60;3.35;;;;;;;19.80;26.27;99444.91;4498221;31;33716;-63
2023/04/22 07:42:50;;;;;;;6.65;3.62;;;;;;;19.96;25.78;99443.94;4492406;31;35270;-60
2023/04/22 07:45:18;;;;;;;5.93;3.60;;;;;;;19.62;26.37;99438.91;4485283;31;34133;-61
2023/04/22 07:47:45;;;;;;;6.75;2.97;;;;;;;19.68;24.85;99446.38;4487154;31;33170;-63
2023/04/22 07:50:13;;;;;;;5.90;2.85;;;;;;;20.19;25.69;99441.19;4485168;31;33637;-64
2023/04/22 07:52:40;;;;;;;7.05;3.28;;;;;;;20.37;24.29;99446.28;4486463;31;34073;-63
2023/04/22 07:55:08;;;;;;;5.60;3.22;;;;;;;20.73;23.71;99434.72;4489693;31;33894;-60
2023/04/22 07:57:37;;;;;;;4.07;2.47;;;;;;;20.62;24.28;99438.75;4493893;31;33122;-62
2023/04/22 08:00:07;;;;;;;5.53;3.03;;;;;;;20.80;23.83;99449.25;4487845;31;34402;-62
2023/04/22 08:02:38;;;;;;;6.43;3.67;;;;;;;20.62;24.42;99442.31;4491156;31;34138;-60
2023/04/22 08:05:06;;;;;;;3.97;2.70;;;;;;;20.72;24.11;99441.19;4487433;31;33080;-61
2023/04/22 08:07:34;;;;;;;6.35;3.50;;;;;;;20.81;24.83;99446.34;4490780;31;34577;-61
2023/04/22 08:10:01;;;;;;;5.80;3.20;;;;;;;21.18;23.93;99441.81;4490338;31;33592;-62
2023/04/22 08:12:29;;;;;;;6.60;2.90;;;;;;;20.83;23.96;99444.28;4485746;32;34135;-61
2023/04/22 08:14:57;;;;;;;5.45;2.97;;;;;;;21.57;22.90;99446.91;4485155;31;33759;-61
2023/04/22 08:17:25;;;;;;;4.72;2.65;;;;;;;21.38;23.05;99442.94;4494248;31;33449;-63
2023/04/22 08:19:53;;;;;;;5.68;2.90;;;;;;;21.30;23.39;99439.44;4484331;32;35750;-63
2023/04/22 08:22:20;;;;;;;5.28;3.22;;;;;;;21.56;23.87;99447.09;4485711;32;34894;-62
2023/04/22 08:24:48;;;;;;;5.53;3.05;;;;;;;22.07;24.64;99444.25;4484304;31;33642;-61
2023/04/22 08:27:15;;;;;;;5.97;3.47;;;;;;;21.33;23.40;99447.22;4499794;31;32131;-62
2023/04/22 08:29:43;;;;;;;6.78;3.62;;;;;;;21.71;23.65;99445.16;4495685;31;34950;-60
2023/04/22 08:32:10;;;;;;;5.37;2.55;;;;;;;22.03;23.72;99451.13;4486081;31;33740;-61
2023/04/22 08:34:38;;;;;;;5.93;3.28;;;;;;;21.61;23.55;99440.03;4485341;32;32618;-61
2023/04/22 08:37:07;;;;;;;8.77;3.78;;;;;;;21.56;24.21;99447.94;4486814;31;33629;-62
2023/04/22 08:39:34;;;;;;;5.47;2.60;;;;;;;22.32;24.10;99442.81;4483348;31;33876;-63
2023/04/22 08:42:02;;;;;;;5.93;3.72;;;;;;;22.14;23.42;99442.41;4492040;31;33887;-63
2023/04/22 08:44:30;;;;;;;4.93;3.12;;;;;;;22.72;23.53;99445.78;4501251;31;33712;-60
2023/04/22 08:46:58;;;;;;;8.85;4.07;;;;;;;22.32;24.03;99442.81;4496818;31;33453;-61
2023/04/22 08:49:29;;;;;;;7.05;3.75;;;;;;;22.70;22.63;99445.19;4496365;31;33531;-61
2023/04/22 08:51:57;;;;;;;5.35;3.78;;;;;;;22.43;23.19;99440.56;4501145;31;34446;-62
2023/04/22 08:54:25;;;;;;;8.95;5.00;;;;;;;22.33;23.74;99440.91;4486643;31;34141;-60
2023/04/22 08:56:53;;;;;;;9.35;4.57;;;;;;;22.51;24.38;99437.72;4490566;31;33630;-63
2023/04/22 08:59:21;;;;;;;6.53;3.60;;;;;;;22.47;23.44;99444.56;4496177;31;33859;-62
2023/04/22 09:01:52;;;;;;;6.05;2.90;;;;;;;22.46;23.20;99445.63;4489734;31;34865;-60
2023/04/22 09:04:20;;;;;;;10.13;3.35;;;;;;;22.52;25.13;99439.38;4495598;31;33630;-62
2023/04/22 09:06:48;;;;;;;7.57;3.87;;;;;;;22.72;22.88;99444.97;4485222;31;34498;-60
2023/04/22 09:09:16;;;;;;;8.75;3.83;;;;;;;23.00;23.30;99442.22;4493530;31;34661;-62
2023/04/22 09:11:43;;;;;;;6.00;3.47;;;;;;;23.35;23.46;99445.72;4487241;31;35234;-63
2023/04/22 09:14:11;;;;;;;4.87;3.15;;;;;;;23.73;22.81;99438.94;4491896;31;34776;-61
2023/04/22 09:16:46;;;;;;;7.22;4.37;;;;;;;22.83;22.56;99438.97;4484614;31;33177;-62
2023/04/22 09:19:14;;;;;;;8.98;4.50;;;;;;;23.29;22.38;99434.78;4488715;31;33992;-61
2023/04/22 09:21:41;;;;;;;5.43;3.65;;;;;;;22.98;23.06;99438.84;4494364;31;35257;-61
2023/04/22 09:24:10;;;;;;;8.35;4.32;;;;;;;22.69;23.58;99443.47;4500754;31;33459;-61
2023/04/22 09:26:40;;;;;;;7.43;4.50;;;;;;;23.28;22.85;99439.41;4498941;31;33506;-62
2023/04/22 09:29:12;;;;;;;6.37;4.25;;;;;;;23.01;23.74;99435.69;4499874;31;32780;-61
2023/04/22 09:31:40;;;;;;;9.57;4.00;;;;;;;23.97;22.19;99438.31;4493072;31;33990;-61
2023/04/22 09:34:08;;;;;;;7.43;3.75;;;;;;;24.26;22.93;99437.06;4486027;31;33490;-61
2023/04/22 09:36:39;;;;;;;7.22;4.05;;;;;;;23.69;22.10;99435.75;4485534;31;33374;-62
2023/04/22 09:39:07;;;;;;;10.90;4.35;;;;;;;23.96;21.78;99441.28;4485766;31;34975;-61
2023/04/22 09:41:39;;;;;;;5.45;3.62;;;;;;;24.31;21.86;99429.06;4492310;31;35067;-61
2023/04/22 09:44:14;;;;;;;6.97;3.87;;;;;;;24.59;21.39;99437.06;4485253;31;34163;-63
2023/04/22 09:46:43;;;;;;;5.82;3.00;;;;;;;23.07;23.08;99428.59;4494002;31;32054;-61
2023/04/22 09:49:10;;;;;;;5.72;3.55;;;;;;;23.89;21.63;99422.13;4499157;31;34764;-63
2023/04/22 09:51:41;;;;;;;8.77;4.18;;;;;;;23.57;22.71;99427.31;4497235;31;33962;-63
2023/04/22 09:54:10;;;;;;;9.73;5.25;;;;;;;23.71;22.13;99420.00;4494614;31;33735;-61
2023/04/22 09:56:49;;;;;;;5.60;2.78;;;;;;;23.92;23.54;99417.09;4487191;31;34427;-64
2023/04/22 09:59:21;;;;;;;6.45;3.75;;;;;;;24.23;22.87;99410.12;4486736;31;33717;-63
2023/04/22 10:01:52;;;;;;;6.62;4.10;;;;;;;24.39;22.79;99412.44;4487547;31;33440;-61
2023/04/22 10:04:22;;;;;;;7.45;4.00;;;;;;;24.42;22.08;99403.00;4488111;31;32710;-62
2023/04/22 10:06:50;;;;;;;8.52;4.35;;;;;;;24.81;21.70;99396.56;4486336;31;33449;-62
2023/04/22 10:09:19;;;;;;;8.93;3.30;;;;;;;24.64;22.52;99400.84;4492851;31;33840;-63
2023/04/22 10:11:52;;;;;;;9.20;4.30;;;;;;;24.33;23.12;99396.91;4486372;31;32674;-63
2023/04/22 10:14:21;;;;;;;7.62;2.92;;;;;;;24.10;22.34;99404.69;4492048;31;33579;-61
2023/04/22 10:16:55;;;;;;;10.98;4.55;;;;;;;24.63;21.80;99397.28;4490986;31;34523;-61
2023/04/22 10:19:24;;;;;;;5.18;3.05;;;;;;;24.71;21.42;99392.63;4489428;31;32024;-60
2023/04/22 10:21:56;;;;;;;5.72;3.62;;;;;;;25.39;21.11;99392.16;4488274;31;35240;-63
2023/04/22 10:24:26;;;;;;;7.30;4.30;;;;;;;24.94;21.58;99392.13;4484097;31;33745;-64
2023/04/22 10:26:56;;;;;;;10.50;4.75;;;;;;;24.99;21.94;99390.41;4497302;31;33856;-63
2023/04/22 10:29:26;;;;;;;10.18;4.53;;;;;;;25.10;22.17;99389.75;4485572;31;33667;-63
2023/04/22 10:31:57;;;;;;;6.72;4.18;;;;;;;25.65;20.69;99378.31;4493349;31;33378;-61
2023/04/22 10:34:24;;;;;;;7.37;3.58;;;;;;;25.68;20.75;99377.00;4498020;31;33971;-63
2023/04/22 10:36:58;;;;;;;7.45;4.03;;;;;;;25.62;21.32;99381.47;4498766;31;34746;-61
2023/04/22 10:39:28;;;;;;;7.47;4.10;;;;;;;25.08;21.30;99380.06;4487517;31;32741;-61
2023/04/22 10:42:10;;;;;;;8.77;4.70;;;;;;;24.39;20.87;99386.97;4495004;31;33944;-61
2023/04/22 10:44:47;;;;;;;11.43;4.25;;;;;;;25.16;20.86;99385.31;4492228;31;32445;-61
2023/04/22 10:47:37;;;;;;;7.40;4.85;;;;;;;25.07;20.35;99381.09;4498099;31;33169;-60
2023/04/22 10:50:27;;;;;;;5.97;3.37;;;;;;;23.66;22.05;99382.34;4496264;31;35046;-61
2023/04/22 10:52:56;;;;;;;8.93;5.10;;;;;;;24.24;21.50;99383.63;4499227;31;34991;-64
2023/04/22 10:55:24;;;;;;;5.90;3.12;;;;;;;24.69;21.61;99381.91;4491834;31;34763;-63
2023/04/22 10:57:52;;;;;;;5.87;3.92;;;;;;;24.87;21.37;99378.47;4496601;31;33275;-61
2023/04/22 11:00:23;;;;;;;9.68;5.15;;;;;;;24.94;21.89;99379.28;4484183;31;34676;-61
2023/04/22 11:02:52;;;;;;;9.85;4.90;;;;;;;24.66;22.93;99381.50;4490203;31;34518;-63
2023/04/22 11:05:23;;;;;;;8.73;3.83;;;;;;;24.59;23.32;99370.53;4498668;31;33749;-62
2023/04/22 11:07:54;;;;;;;7.70;4.20;;;;;;;24.74;22.57;99379.34;4498769;31;34545;-61
2023/04/22 11:10:43;;;;;;;5.57;3.45;;;;;;;24.37;22.98;99381.72;4496295;31;33740;-61
2023/04/22 11:13:14;;;;;;;8.25;3.58;;;;;;;24.23;23.37;99382.78;4498506;31;33768;-63
2023/04/22 11:15:43;;;;;;;5.87;3.50;;;;;;;23.76;23.21;99383.87;4501496;31;32719;-65
2023/04/22 11:18:22;;;;;;;7.85;3.28;;;;;;;24.06;22.74;99376.09;4500385;31;32272;-61
2023/04/22 11:20:52;;;;;;;6.28;4.80;;;;;;;23.87;23.18;99375.03;4499328;31;33957;-61
2023/04/22 11:23:27;;;;;;;6.68;3.50;;;;;;;23.71;23.69;99376.28;4485010;31;33995;-64
2023/04/22 11:26:04;;;;;;;7.65;4.32;;;;;;;24.06;23.43;99373.34;4487460;31;33783;-60
2023/04/22 11:28:32;;;;;;;5.32;2.58;;;;;;;24.00;23.85;99375.03;4494668;31;34460;-64
2023/04/22 11:31:01;;;;;;;6.20;3.37;;;;;;;23.60;23.74;99372.25;4500256;31;33762;-64
2023/04/22 11:33:29;;;;;;;5.93;3.40;;;;;;;23.60;23.93;99376.87;4499304;31;32799;-61
2023/04/22 11:35:57;;;;;;;8.80;4.68;;;;;;;23.47;24.12;99380.44;4486774;31;33680;-61
2023/04/22 11:38:25;;;;;;;6.68;3.75;;;;;;;23.74;23.63;99373.12;4485363;31;33602;-61
2023/04/22 11:40:54;;;;;;;4.82;3.20;;;;;;;23.55;23.70;99374.75;4489674;31;33419;-61